Terminal Aerodrome Forecast
Issued by NWS

Home | Current Version | Previous Version | Text Only | Print | Product List | Glossary On
Versions: 1 2 3 4 5 6 7 8 9 10 11 12 13 14 15 16 17 18 19 20 21 22 23 24 25 26 27 28 29 30 31 32 33 34
000
FTAK31 PAFA 291738
TAFASC
TAF
PASC 291738Z 2918/3018 29012KT P6SM SCT015 BKN080
     FM300000 32008KT P6SM SCT010
      TEMPO 3000/3004 01010KT P6SM BKN010
     FM300400 02006KT P6SM BKN010
     FM300900 06008KT 1SM BR OVC005=

USA.gov is the U.S. government's official web portal to all federal, state and local government web resources and services.